createdAt,value
2017-12-16T06:51:46.500Z,3
2017-12-16T07:00:47.043Z,7
2017-12-16T07:04:47.275Z,10
2017-12-16T07:06:47.360Z,13
2017-12-16T07:08:47.515Z,17
2017-12-16T07:10:17.554Z,20
2017-12-16T07:12:17.743Z,23
2017-12-16T07:12:47.711Z,27
2017-12-16T07:13:17.739Z,30
2017-12-16T07:13:47.771Z,33
2017-12-16T07:14:47.866Z,37
2017-12-16T07:15:47.952Z,40
2017-12-16T07:16:47.959Z,43
2017-12-16T07:17:17.998Z,47
2017-12-16T07:18:18.035Z,50
2017-12-16T07:19:18.094Z,53
2017-12-16T07:19:48.187Z,57
2017-12-16T07:21:18.257Z,53
2017-12-16T07:21:48.325Z,50
2017-12-16T07:23:18.356Z,47
2017-12-16T07:23:48.442Z,50
2017-12-16T07:24:18.471Z,47
2017-12-16T07:24:48.495Z,43
2017-12-16T07:25:18.492Z,47
2017-12-16T07:26:19.341Z,50
2017-12-16T07:26:48.600Z,53
2017-12-16T07:27:48.792Z,50
2017-12-16T07:28:18.645Z,53
2017-12-16T07:29:18.725Z,57
2017-12-16T07:29:48.754Z,60
2017-12-16T07:30:18.791Z,70
2017-12-16T07:32:18.952Z,67
2017-12-16T07:32:48.948Z,60
2017-12-16T07:33:18.960Z,57
2017-12-16T07:33:49.003Z,53
2017-12-16T07:34:19.045Z,50
2017-12-16T07:35:49.124Z,53
2017-12-16T07:36:19.224Z,57
2017-12-16T07:36:49.187Z,53
2017-12-16T07:38:19.336Z,57
2017-12-16T07:38:49.364Z,60
2017-12-16T07:40:49.517Z,70
2017-12-16T07:41:19.505Z,73
2017-12-16T07:41:49.533Z,80
2017-12-16T07:42:19.572Z,83
2017-12-16T07:43:19.670Z,90
2017-12-16T07:43:49.657Z,103
2017-12-16T07:44:49.793Z,97
2017-12-16T07:45:19.773Z,110
2017-12-16T07:46:19.833Z,117
2017-12-16T07:46:49.868Z,110
2017-12-16T07:47:49.911Z,113
2017-12-16T07:48:19.918Z,120
2017-12-16T07:48:49.989Z,133
2017-12-16T07:49:20.005Z,150
2017-12-16T07:49:50.035Z,147
2017-12-16T07:50:20.066Z,150
2017-12-16T07:50:50.076Z,153
2017-12-16T07:51:50.207Z,150
2017-12-16T07:52:20.151Z,147
2017-12-16T07:53:20.223Z,150
2017-12-16T07:53:50.253Z,153
2017-12-16T07:54:20.309Z,140
2017-12-16T07:54:50.307Z,133
2017-12-16T07:55:20.333Z,143
2017-12-16T07:55:50.356Z,153
2017-12-16T07:56:20.370Z,160
2017-12-16T07:56:50.549Z,163
2017-12-16T07:57:20.517Z,150
2017-12-16T07:58:20.514Z,157
2017-12-16T07:58:50.581Z,167
2017-12-16T07:59:20.571Z,160
2017-12-16T08:00:50.660Z,170
2017-12-16T08:01:20.690Z,187
2017-12-16T08:02:20.761Z,203
2017-12-16T08:02:50.806Z,213
2017-12-16T08:03:50.850Z,210
2017-12-16T08:04:50.946Z,193
2017-12-16T08:05:20.938Z,170
2017-12-16T08:05:50.961Z,167
2017-12-16T08:06:21.024Z,173
2017-12-16T08:06:51.023Z,163
2017-12-16T08:07:21.136Z,147
2017-12-16T08:07:51.082Z,133
2017-12-16T08:08:21.159Z,140
2017-12-16T08:08:51.168Z,147
2017-12-16T08:09:21.213Z,133
2017-12-16T08:09:51.256Z,127
2017-12-16T08:10:21.276Z,120
2017-12-16T08:11:21.328Z,127
2017-12-16T08:11:51.394Z,130
2017-12-16T08:12:21.372Z,133
2017-12-16T08:12:51.489Z,140
2017-12-16T08:13:21.445Z,150
2017-12-16T08:13:51.494Z,163
2017-12-16T08:14:21.551Z,160
2017-12-16T08:14:51.560Z,177
2017-12-16T08:15:21.640Z,193
2017-12-16T08:15:51.646Z,213
2017-12-16T08:18:21.786Z,223
2017-12-16T08:18:51.772Z,243
2017-12-16T08:19:21.788Z,253
2017-12-16T08:19:51.832Z,250
2017-12-16T08:20:21.844Z,230
2017-12-16T08:20:51.895Z,227
2017-12-16T08:21:21.903Z,213
2017-12-16T08:21:51.951Z,220
2017-12-16T08:22:22.001Z,237
2017-12-16T08:23:22.089Z,253
2017-12-16T08:23:52.078Z,277
2017-12-16T08:24:22.080Z,300
2017-12-16T08:24:52.146Z,323
2017-12-16T08:25:22.144Z,367
2017-12-16T08:25:52.192Z,407
2017-12-16T08:26:22.250Z,437
2017-12-16T08:26:52.251Z,493
2017-12-16T08:27:22.340Z,497
2017-12-16T08:27:52.318Z,560
2017-12-16T08:28:22.367Z,583
2017-12-16T08:28:52.402Z,577
2017-12-16T08:29:22.388Z,553
2017-12-16T08:29:52.492Z,517
2017-12-16T08:30:22.484Z,487
2017-12-16T08:30:52.499Z,477
2017-12-16T08:31:22.567Z,510
2017-12-16T08:31:52.641Z,573
2017-12-16T08:32:22.573Z,567
2017-12-16T08:32:52.731Z,590
2017-12-16T08:33:22.714Z,587
2017-12-16T08:33:52.801Z,590
2017-12-16T08:34:22.801Z,600
2017-12-16T08:34:52.778Z,610
2017-12-16T08:35:22.794Z,627
2017-12-16T08:35:52.849Z,650
2017-12-16T08:36:22.884Z,727
2017-12-16T08:36:52.915Z,760
2017-12-16T08:37:22.920Z,780
2017-12-16T08:37:52.961Z,783
2017-12-16T08:38:23.034Z,750
2017-12-16T08:38:53.321Z,700
2017-12-16T08:39:23.314Z,730
2017-12-16T08:39:53.377Z,690
2017-12-16T08:40:23.411Z,627
2017-12-16T08:40:53.445Z,557
2017-12-16T08:41:23.420Z,463
2017-12-16T08:41:53.506Z,417
2017-12-16T08:42:23.492Z,393
2017-12-16T08:42:53.569Z,400
2017-12-16T08:43:53.644Z,453
2017-12-16T08:44:23.602Z,470
2017-12-16T08:44:53.684Z,447
2017-12-16T08:45:23.669Z,417
2017-12-16T08:45:53.714Z,420
2017-12-16T08:46:23.771Z,417
2017-12-16T08:46:53.801Z,407
2017-12-16T08:47:23.781Z,367
2017-12-16T08:47:53.836Z,337
2017-12-16T08:48:23.845Z,330
2017-12-16T08:48:53.922Z,337
2017-12-16T08:49:23.903Z,363
2017-12-16T08:49:53.950Z,380
2017-12-16T08:50:23.964Z,377
2017-12-16T08:50:54.010Z,393
2017-12-16T08:51:24.029Z,410
2017-12-16T08:51:54.070Z,440
2017-12-16T08:52:24.138Z,453
2017-12-16T08:52:54.147Z,433
2017-12-16T08:53:24.176Z,427
2017-12-16T08:53:54.255Z,423
2017-12-16T08:54:24.249Z,427
2017-12-16T08:55:54.341Z,420
2017-12-16T08:56:24.427Z,427
2017-12-16T08:56:54.436Z,457
2017-12-16T08:57:24.410Z,547
2017-12-16T08:57:54.479Z,560
2017-12-16T08:58:24.505Z,570
2017-12-16T08:58:54.536Z,567
2017-12-16T08:59:24.595Z,577
2017-12-16T08:59:54.758Z,600
2017-12-16T09:00:24.687Z,640
2017-12-16T09:00:54.636Z,677
2017-12-16T09:01:24.642Z,637
2017-12-16T09:01:54.684Z,600
2017-12-16T09:02:24.760Z,573
2017-12-16T09:02:54.749Z,570
2017-12-16T09:03:24.790Z,603
2017-12-16T09:03:54.873Z,657
2017-12-16T09:04:25.049Z,687
2017-12-16T09:04:54.891Z,747
2017-12-16T09:05:24.891Z,743
2017-12-16T09:05:54.933Z,803
2017-12-16T09:06:24.950Z,777
2017-12-16T09:06:54.993Z,803
2017-12-16T09:07:25.008Z,780
2017-12-16T09:07:55.149Z,683
2017-12-16T09:08:25.172Z,673
2017-12-16T09:08:55.308Z,640
2017-12-16T09:09:25.304Z,587
2017-12-16T09:09:55.281Z,583
2017-12-16T09:10:25.337Z,567
2017-12-16T09:10:55.367Z,513
2017-12-16T09:11:25.375Z,487
2017-12-16T09:11:55.408Z,440
2017-12-16T09:12:25.477Z,427
2017-12-16T09:12:55.537Z,477
2017-12-16T09:13:25.483Z,463
2017-12-16T09:13:55.619Z,460
2017-12-16T09:14:25.575Z,530
2017-12-16T09:14:55.624Z,637
2017-12-16T09:15:25.760Z,753
2017-12-16T09:15:55.675Z,860
2017-12-16T09:16:25.738Z,847
2017-12-16T09:16:55.762Z,880
2017-12-16T09:17:25.756Z,830
2017-12-16T09:17:55.808Z,790
2017-12-16T09:18:25.809Z,853
2017-12-16T09:18:55.928Z,877
2017-12-16T09:19:25.898Z,913
2017-12-16T09:19:55.951Z,1070
2017-12-16T09:20:25.934Z,1187
2017-12-16T09:20:55.983Z,1417
2017-12-16T09:21:26.012Z,1710
2017-12-16T09:21:56.014Z,1693
2017-12-16T09:22:26.092Z,1707
2017-12-16T09:22:56.150Z,1703
2017-12-16T09:23:26.146Z,1560
2017-12-16T09:23:56.230Z,1543
2017-12-16T09:24:26.425Z,1387
2017-12-16T09:24:56.247Z,1290
2017-12-16T09:25:26.264Z,1373
2017-12-16T09:25:56.299Z,1497
2017-12-16T09:26:26.357Z,1493
2017-12-16T09:26:56.387Z,1523
2017-12-16T09:27:26.341Z,1670
2017-12-16T09:27:56.425Z,1987
2017-12-16T09:28:26.409Z,1990
2017-12-16T09:28:56.511Z,1730
2017-12-16T09:29:26.507Z,1663
2017-12-16T09:29:56.560Z,1490
2017-12-16T09:30:26.611Z,1310
2017-12-16T09:30:56.563Z,1363
2017-12-16T09:31:26.656Z,1410
2017-12-16T09:31:56.639Z,1470
2017-12-16T09:32:26.656Z,1710
2017-12-16T09:32:56.699Z,1917
2017-12-16T09:33:26.708Z,1947
2017-12-16T09:33:56.837Z,1727
2017-12-16T09:34:26.772Z,1873
2017-12-16T09:34:56.812Z,1997
2017-12-16T09:35:26.835Z,1920
2017-12-16T09:35:56.888Z,2273
2017-12-16T09:36:26.888Z,2077
2017-12-16T09:36:56.938Z,1740
2017-12-16T09:37:26.963Z,1653
2017-12-16T09:37:56.994Z,1487
2017-12-16T09:38:27.010Z,1343
2017-12-16T09:38:57.555Z,1180
2017-12-16T09:39:27.395Z,1067
2017-12-16T09:39:57.439Z,1017
2017-12-16T09:40:27.452Z,1040
2017-12-16T09:40:57.468Z,1077
2017-12-16T09:41:27.500Z,1193
2017-12-16T09:41:57.533Z,1223
2017-12-16T09:42:27.544Z,1293
2017-12-16T09:42:57.593Z,1400
2017-12-16T09:43:27.617Z,1593
2017-12-16T09:43:57.732Z,1680
2017-12-16T09:44:27.660Z,1803
2017-12-16T09:44:57.778Z,2130
2017-12-16T09:45:27.775Z,2350
2017-12-16T09:45:57.805Z,2430
2017-12-16T09:46:27.835Z,2567
2017-12-16T09:46:57.831Z,2593
2017-12-16T09:47:27.845Z,2647
2017-12-16T09:47:57.883Z,2627
2017-12-16T09:48:27.905Z,2520
2017-12-16T09:48:57.972Z,2190
2017-12-16T09:49:27.963Z,2013
2017-12-16T09:49:58.052Z,1800
2017-12-16T09:50:28.028Z,1637
2017-12-16T09:50:58.075Z,1580
2017-12-16T09:51:28.082Z,1477
2017-12-16T09:51:58.146Z,1513
2017-12-16T09:52:28.206Z,1457
2017-12-16T09:52:58.212Z,1603
2017-12-16T09:53:28.232Z,1610
2017-12-16T09:53:58.484Z,1597
2017-12-16T09:54:28.393Z,1703
2017-12-16T09:54:58.408Z,1707
2017-12-16T09:55:28.479Z,1720
2017-12-16T09:55:58.539Z,1780
2017-12-16T09:56:28.545Z,1897
2017-12-16T09:56:58.556Z,2030
2017-12-16T09:57:28.594Z,1923
2017-12-16T09:57:58.629Z,1910
2017-12-16T09:58:28.652Z,1860
2017-12-16T09:58:58.790Z,1750
2017-12-16T09:59:28.751Z,1590
2017-12-16T09:59:58.766Z,1467
2017-12-16T10:00:28.787Z,1483
2017-12-16T10:00:58.812Z,1613
2017-12-16T10:01:28.836Z,1543
2017-12-16T10:01:58.867Z,1600
2017-12-16T10:02:28.873Z,1970
2017-12-16T10:02:58.929Z,2163
2017-12-16T10:03:29.016Z,2253
2017-12-16T10:03:59.014Z,2187
2017-12-16T10:04:29.020Z,2120
2017-12-16T10:04:59.069Z,2137
2017-12-16T10:05:29.054Z,2267
2017-12-16T10:05:59.369Z,2393
2017-12-16T10:06:29.424Z,2280
2017-12-16T10:06:59.391Z,2297
2017-12-16T10:07:29.457Z,2167
2017-12-16T10:07:59.476Z,1937
2017-12-16T10:08:29.495Z,1673
2017-12-16T10:08:59.633Z,1540
2017-12-16T10:09:29.569Z,1557
2017-12-16T10:09:59.582Z,1633
2017-12-16T10:10:59.709Z,1647
2017-12-16T10:11:29.657Z,1677
2017-12-16T10:11:59.711Z,1670
2017-12-16T10:12:29.731Z,1697
2017-12-16T10:12:59.773Z,1610
2017-12-16T10:13:29.784Z,1477
2017-12-16T10:14:01.331Z,1403
2017-12-16T10:14:29.859Z,1573
2017-12-16T10:14:59.892Z,1540
2017-12-16T10:15:29.902Z,1457
2017-12-16T10:15:59.947Z,1480
2017-12-16T10:16:30.037Z,1703
2017-12-16T10:17:00.016Z,1650
2017-12-16T10:17:30.060Z,1973
2017-12-16T10:18:00.070Z,2493
2017-12-16T10:18:30.127Z,2773
2017-12-16T10:19:00.167Z,2583
2017-12-16T10:19:30.154Z,2457
2017-12-16T10:20:00.958Z,2383
2017-12-16T10:20:30.241Z,2283
2017-12-16T10:21:00.831Z,2280
2017-12-16T10:21:30.337Z,2150
2017-12-16T10:22:00.810Z,2287
2017-12-16T10:22:30.371Z,2323
2017-12-16T10:23:01.568Z,2243
2017-12-16T10:23:30.418Z,2460
2017-12-16T10:24:00.804Z,2330
2017-12-16T10:24:30.503Z,2337
2017-12-16T10:25:00.928Z,2300
2017-12-16T10:25:30.575Z,2013
2017-12-16T10:26:00.871Z,1870
2017-12-16T10:26:30.638Z,1790
2017-12-16T10:27:00.872Z,1823
2017-12-16T10:27:30.641Z,1660
2017-12-16T10:28:00.700Z,1640
2017-12-16T10:28:30.725Z,1567
2017-12-16T10:29:02.263Z,1537
2017-12-16T10:30:00.806Z,1533
2017-12-16T10:30:30.824Z,1560
2017-12-16T10:31:00.875Z,1693
2017-12-16T10:31:30.917Z,1740
2017-12-16T10:32:00.985Z,1883
2017-12-16T10:32:30.946Z,1850
2017-12-16T10:33:00.996Z,1733
2017-12-16T10:33:31.118Z,1630
2017-12-16T10:34:01.113Z,1667
2017-12-16T10:34:31.063Z,1540
2017-12-16T10:35:31.131Z,1503
2017-12-16T10:36:01.175Z,1427
2017-12-16T10:36:31.217Z,1423
2017-12-16T10:37:01.256Z,1413
2017-12-16T10:37:31.250Z,1473
2017-12-16T10:38:01.361Z,1480
2017-12-16T10:38:31.338Z,1397
2017-12-16T10:39:01.437Z,1297
2017-12-16T10:39:31.433Z,1357
2017-12-16T10:40:01.416Z,1477
2017-12-16T10:40:31.477Z,1503
2017-12-16T10:41:01.485Z,1297
2017-12-16T10:41:31.578Z,1270
2017-12-16T10:42:01.571Z,1307
2017-12-16T10:42:31.635Z,1497
2017-12-16T10:43:01.683Z,1373
2017-12-16T10:43:31.665Z,1320
2017-12-16T10:44:01.711Z,1167
2017-12-16T10:44:31.683Z,1087
2017-12-16T10:45:02.199Z,1137
2017-12-16T10:45:31.818Z,1220
2017-12-16T10:46:01.845Z,1277
2017-12-16T10:46:31.854Z,1377
2017-12-16T10:47:01.892Z,1280
2017-12-16T10:47:31.925Z,1100
2017-12-16T10:48:01.940Z,913
2017-12-16T10:48:31.971Z,787
2017-12-16T10:49:02.114Z,757
2017-12-16T10:49:32.037Z,890
2017-12-16T10:50:02.108Z,873
2017-12-16T10:50:32.089Z,803
2017-12-16T10:51:02.211Z,837
2017-12-16T10:51:32.118Z,947
2017-12-16T10:52:02.544Z,853
2017-12-16T10:52:32.562Z,780
2017-12-16T10:53:02.587Z,750
2017-12-16T10:53:32.594Z,730
2017-12-16T10:54:02.744Z,703
2017-12-16T10:54:32.670Z,610
2017-12-16T10:55:32.733Z,630
2017-12-16T10:56:02.755Z,650
2017-12-16T10:56:32.783Z,677
2017-12-16T10:57:02.834Z,670
2017-12-16T10:57:32.844Z,690
2017-12-16T10:58:02.911Z,730
2017-12-16T10:58:32.901Z,770
2017-12-16T10:59:02.991Z,813
2017-12-16T10:59:32.966Z,980
2017-12-16T11:00:03.005Z,933
2017-12-16T11:00:33.026Z,853
2017-12-16T11:01:03.079Z,810
2017-12-16T11:01:33.143Z,857
2017-12-16T11:02:03.138Z,860
2017-12-16T11:02:33.183Z,993
2017-12-16T11:03:03.217Z,1060
2017-12-16T11:03:33.236Z,1170
2017-12-16T11:04:03.325Z,1133
2017-12-16T11:04:33.267Z,1113
2017-12-16T11:05:03.370Z,1100
2017-12-16T11:05:33.346Z,1133
2017-12-16T11:06:03.404Z,1213
2017-12-16T11:06:33.430Z,1177
2017-12-16T11:07:03.459Z,1257
2017-12-16T11:07:33.486Z,1430
2017-12-16T11:08:03.534Z,1380
2017-12-16T11:08:33.535Z,1423
2017-12-16T11:09:03.651Z,1610
2017-12-16T11:09:33.602Z,1677
2017-12-16T11:10:03.699Z,1730
2017-12-16T11:10:33.679Z,1847
2017-12-16T11:11:03.689Z,1773
2017-12-16T11:11:33.700Z,1737
2017-12-16T11:12:03.808Z,1723
2017-12-16T11:12:33.781Z,1640
2017-12-16T11:13:03.836Z,1617
2017-12-16T11:13:33.836Z,1567
2017-12-16T11:14:03.935Z,1657
2017-12-16T11:14:33.882Z,1713
2017-12-16T11:15:03.924Z,1820
2017-12-16T11:15:33.992Z,1987
2017-12-16T11:16:03.989Z,1887
2017-12-16T11:16:34.048Z,1933
2017-12-16T11:17:04.067Z,1800
2017-12-16T11:17:34.107Z,1723
2017-12-16T11:18:04.120Z,1707
2017-12-16T11:18:34.187Z,1687
2017-12-16T11:19:04.184Z,1517
2017-12-16T11:19:34.190Z,1453
2017-12-16T11:20:04.341Z,1370
2017-12-16T11:20:34.294Z,1460
2017-12-16T11:21:04.380Z,1693
2017-12-16T11:21:34.322Z,1863
2017-12-16T11:22:04.401Z,2047
2017-12-16T11:22:34.416Z,2147
2017-12-16T11:23:04.432Z,2187
2017-12-16T11:23:34.484Z,2097
2017-12-16T11:24:04.513Z,1900
2017-12-16T11:24:34.555Z,1847
2017-12-16T11:25:04.608Z,1713
2017-12-16T11:25:34.559Z,1450
2017-12-16T11:26:04.642Z,1447
2017-12-16T11:26:34.650Z,1273
2017-12-16T11:27:04.725Z,1260
2017-12-16T11:27:34.758Z,1207
2017-12-16T11:28:04.727Z,1210
2017-12-16T11:28:34.780Z,1383
2017-12-16T11:29:04.852Z,1633
2017-12-16T11:29:34.851Z,1797
2017-12-16T11:30:04.954Z,1813
2017-12-16T11:30:34.902Z,1610
2017-12-16T11:31:05.050Z,1397
2017-12-16T11:31:35.047Z,1250
2017-12-16T11:32:05.057Z,1233
2017-12-16T11:32:35.038Z,1193
2017-12-16T11:33:05.032Z,1180
2017-12-16T11:33:35.071Z,1363
2017-12-16T11:34:05.178Z,1657
2017-12-16T11:34:35.171Z,1913
2017-12-16T11:35:05.286Z,1897
2017-12-16T11:35:35.227Z,1850
2017-12-16T11:36:05.247Z,1663
2017-12-16T11:36:35.272Z,1377
2017-12-16T11:37:05.354Z,1353
2017-12-16T11:37:35.359Z,1480
2017-12-16T11:38:05.382Z,1620
2017-12-16T11:38:35.400Z,1857
2017-12-16T11:39:05.445Z,1917
2017-12-16T11:39:35.444Z,1947
2017-12-16T11:40:05.589Z,2133
2017-12-16T11:41:05.616Z,2310
2017-12-16T11:41:35.669Z,2550
2017-12-16T11:42:05.679Z,2683
2017-12-16T11:42:35.723Z,2573
2017-12-16T11:43:05.734Z,2780
2017-12-16T11:43:35.750Z,2777
2017-12-16T11:44:05.801Z,2607
2017-12-16T11:44:35.846Z,2433
2017-12-16T11:45:05.944Z,2290
2017-12-16T11:45:35.899Z,2227
2017-12-16T11:46:05.916Z,2163
2017-12-16T11:46:35.959Z,2210
2017-12-16T11:47:05.995Z,2153
2017-12-16T11:47:36.515Z,2120
2017-12-16T11:48:06.052Z,2140
2017-12-16T11:48:36.096Z,2083
2017-12-16T11:49:06.135Z,1960
2017-12-16T11:49:36.115Z,1817
2017-12-16T11:50:06.224Z,1813
2017-12-16T11:50:36.192Z,1703
2017-12-16T11:51:06.242Z,1727
2017-12-16T11:51:36.304Z,1430
2017-12-16T11:52:06.756Z,1333
2017-12-16T11:52:36.981Z,1410
2017-12-16T11:53:06.853Z,1557
2017-12-16T11:53:36.839Z,1697
2017-12-16T11:54:07.213Z,2053
2017-12-16T11:54:37.236Z,2430
2017-12-16T11:55:07.358Z,2690
2017-12-16T11:55:37.282Z,2667
2017-12-16T11:56:07.373Z,2687
2017-12-16T11:56:37.346Z,2477
2017-12-16T11:57:07.439Z,2313
2017-12-16T11:57:37.466Z,2560
2017-12-16T11:58:07.457Z,2883
2017-12-16T11:58:37.519Z,3063
2017-12-16T11:59:07.539Z,3037
2017-12-16T11:59:37.586Z,3017
2017-12-16T12:00:07.702Z,3063
2017-12-16T12:00:37.639Z,3113
2017-12-16T12:01:07.662Z,2893
2017-12-16T12:01:37.680Z,2690
2017-12-16T12:02:07.726Z,2780
2017-12-16T12:02:37.742Z,2633
2017-12-16T12:03:07.794Z,2507
2017-12-16T12:03:37.825Z,2463
2017-12-16T12:04:07.859Z,2523
2017-12-16T12:04:37.921Z,2590
2017-12-16T12:05:07.912Z,2507
2017-12-16T12:05:37.935Z,2487
2017-12-16T12:06:07.968Z,2437
2017-12-16T12:06:37.999Z,2257
2017-12-16T12:07:08.031Z,1987
2017-12-16T12:07:38.087Z,1920
2017-12-16T12:08:08.096Z,1767
2017-12-16T12:08:38.081Z,1517
2017-12-16T12:09:08.151Z,1453
2017-12-16T12:09:38.240Z,1397
2017-12-16T12:10:08.254Z,1300
2017-12-16T12:10:38.263Z,1220
2017-12-16T12:11:08.280Z,1163
2017-12-16T12:11:38.419Z,970
2017-12-16T12:12:08.380Z,770
2017-12-16T12:12:38.378Z,640
2017-12-16T12:13:08.419Z,600
2017-12-16T12:13:38.427Z,640
2017-12-16T12:14:08.502Z,627
2017-12-16T12:14:38.451Z,603
2017-12-16T12:15:08.521Z,627
2017-12-16T12:15:38.526Z,667
2017-12-16T12:16:08.637Z,650
2017-12-16T12:16:38.670Z,693
2017-12-16T12:17:08.649Z,767
2017-12-16T12:17:38.633Z,863
2017-12-16T12:18:08.725Z,907
2017-12-16T12:18:38.695Z,967
2017-12-16T12:19:08.737Z,1020
2017-12-16T12:19:38.771Z,970
2017-12-16T12:20:08.804Z,917
2017-12-16T12:20:38.832Z,843
2017-12-16T12:21:08.925Z,817
2017-12-16T12:21:38.877Z,783
2017-12-16T12:22:08.928Z,737
2017-12-16T12:22:38.937Z,747
2017-12-16T12:23:09.027Z,667
2017-12-16T12:23:39.054Z,603
2017-12-16T12:24:09.047Z,643
2017-12-16T12:24:39.071Z,703
2017-12-16T12:25:09.122Z,733
2017-12-16T12:25:39.178Z,713
2017-12-16T12:26:09.247Z,683
2017-12-16T12:26:39.212Z,623
2017-12-16T12:27:09.275Z,563
2017-12-16T12:27:39.247Z,537
2017-12-16T12:28:09.374Z,533
2017-12-16T12:28:39.373Z,550
2017-12-16T12:29:09.384Z,590
2017-12-16T12:29:39.458Z,647
2017-12-16T12:30:09.479Z,670
2017-12-16T12:30:39.468Z,773
2017-12-16T12:31:09.530Z,877
2017-12-16T12:31:39.511Z,993
2017-12-16T12:32:09.636Z,1227
2017-12-16T12:32:39.575Z,1407
2017-12-16T12:33:09.606Z,1600
2017-12-16T12:33:39.624Z,1760
2017-12-16T12:34:09.691Z,1920
2017-12-16T12:34:39.702Z,1893
2017-12-16T12:35:09.755Z,1860
2017-12-16T12:35:39.768Z,1953
2017-12-16T12:36:09.854Z,2133
2017-12-16T12:36:39.849Z,2460
2017-12-16T12:37:09.848Z,2647
2017-12-16T12:37:40.166Z,2437
2017-12-16T12:38:09.907Z,2270
2017-12-16T12:38:39.935Z,2217
2017-12-16T12:39:09.994Z,2127
2017-12-16T12:39:39.995Z,2077
2017-12-16T12:40:10.029Z,2040
2017-12-16T12:40:40.077Z,1940
2017-12-16T12:41:10.148Z,1857
2017-12-16T12:41:40.122Z,1850
2017-12-16T12:42:10.206Z,1723
2017-12-16T12:42:40.176Z,1640
2017-12-16T12:43:10.247Z,1690
2017-12-16T12:43:40.244Z,1640
2017-12-16T12:44:10.319Z,1677
2017-12-16T12:44:40.337Z,1550
2017-12-16T12:45:10.375Z,1503
2017-12-16T12:45:40.346Z,1567
2017-12-16T12:46:10.497Z,1643
2017-12-16T12:46:40.467Z,1773
2017-12-16T12:47:10.487Z,1697
2017-12-16T12:47:40.549Z,1733
2017-12-16T12:48:10.574Z,1740
2017-12-16T12:48:40.575Z,1790
2017-12-16T12:49:10.624Z,1903
2017-12-16T12:49:40.679Z,1930
2017-12-16T12:50:10.687Z,2180
2017-12-16T12:50:40.734Z,2383
2017-12-16T12:51:10.772Z,2623
2017-12-16T12:51:40.763Z,2947
2017-12-16T12:52:10.823Z,3163
2017-12-16T12:52:40.786Z,3303
2017-12-16T12:53:10.865Z,3247
2017-12-16T12:53:40.928Z,3157
2017-12-16T12:54:10.932Z,2950
2017-12-16T12:54:40.955Z,2740
2017-12-16T12:55:11.018Z,2613
2017-12-16T12:55:41.184Z,2443
2017-12-16T12:56:11.051Z,2333
2017-12-16T12:56:41.074Z,2303
2017-12-16T12:57:11.607Z,2143
2017-12-16T12:57:41.131Z,2107
2017-12-16T12:58:11.220Z,2177
2017-12-16T12:58:41.198Z,2157
2017-12-16T12:59:11.234Z,2027
2017-12-16T12:59:41.257Z,1870
2017-12-16T13:00:11.305Z,1683
2017-12-16T13:00:41.292Z,1500
2017-12-16T13:01:12.099Z,1273
2017-12-16T13:01:42.182Z,1170
2017-12-16T13:02:12.463Z,1160
2017-12-16T13:02:42.181Z,1313
2017-12-16T13:03:12.244Z,1673
2017-12-16T13:03:42.269Z,2040
2017-12-16T13:04:12.337Z,2507
2017-12-16T13:04:42.368Z,2653
2017-12-16T13:05:12.402Z,2417
2017-12-16T13:05:42.378Z,2203
2017-12-16T13:06:12.486Z,2123
2017-12-16T13:06:43.958Z,2133
2017-12-16T13:07:12.521Z,2107
2017-12-16T13:07:42.498Z,2197
2017-12-16T13:08:12.532Z,2190
2017-12-16T13:08:42.624Z,2037
2017-12-16T13:09:12.665Z,1943
2017-12-16T13:09:42.619Z,1853
2017-12-16T13:10:12.718Z,1843
2017-12-16T13:10:42.682Z,1850
2017-12-16T13:11:12.938Z,1867
2017-12-16T13:11:43.460Z,1883
2017-12-16T13:12:13.548Z,2017
2017-12-16T13:12:43.525Z,2163
2017-12-16T13:13:13.556Z,2257
2017-12-16T13:13:43.575Z,2410
2017-12-16T13:14:13.602Z,2670
2017-12-16T13:14:43.647Z,2873
2017-12-16T13:15:13.685Z,2957
2017-12-16T13:15:43.745Z,3223
2017-12-16T13:16:13.767Z,3243
2017-12-16T13:16:43.825Z,2933
2017-12-16T13:17:13.835Z,2633
2017-12-16T13:17:43.842Z,2540
2017-12-16T13:18:13.872Z,2420
2017-12-16T13:18:43.894Z,2373
2017-12-16T13:19:13.911Z,2490
2017-12-16T13:19:43.950Z,2400
2017-12-16T13:20:13.984Z,2450
2017-12-16T13:20:43.994Z,2477
2017-12-16T13:21:14.045Z,2133
2017-12-16T13:21:44.171Z,1837
2017-12-16T13:22:14.132Z,1580
2017-12-16T13:22:44.094Z,1367
2017-12-16T13:23:14.165Z,1183
2017-12-16T13:23:44.211Z,1037
2017-12-16T13:24:14.822Z,953
2017-12-16T13:24:44.848Z,903
2017-12-16T13:25:14.913Z,890
2017-12-16T13:25:44.895Z,837
2017-12-16T13:26:14.992Z,783
2017-12-16T13:26:45.030Z,697
2017-12-16T13:27:15.216Z,667
2017-12-16T13:27:45.250Z,620
2017-12-16T13:28:15.288Z,563
2017-12-16T13:28:45.318Z,533
2017-12-16T13:29:15.318Z,497
2017-12-16T13:29:45.367Z,460
2017-12-16T13:30:15.403Z,480
2017-12-16T13:30:45.429Z,507
2017-12-16T13:31:15.460Z,477
2017-12-16T13:31:45.552Z,503
2017-12-16T13:32:15.558Z,447
2017-12-16T13:32:45.538Z,420
2017-12-16T13:33:15.594Z,427
2017-12-16T13:33:45.597Z,407
2017-12-16T13:34:15.614Z,363
2017-12-16T13:34:45.631Z,370
2017-12-16T13:35:15.679Z,427
2017-12-16T13:35:45.693Z,467
2017-12-16T13:36:15.764Z,553
2017-12-16T13:36:45.781Z,563
2017-12-16T13:37:15.801Z,540
2017-12-16T13:37:45.813Z,527
2017-12-16T13:38:15.860Z,517
2017-12-16T13:38:45.876Z,523
2017-12-16T13:39:15.946Z,460
2017-12-16T13:39:45.966Z,500
2017-12-16T13:40:15.982Z,473
2017-12-16T13:40:46.016Z,457
2017-12-16T13:41:16.045Z,427
2017-12-16T13:41:46.067Z,433
2017-12-16T13:42:16.110Z,447
2017-12-16T13:42:46.122Z,487
2017-12-16T13:43:16.226Z,483
2017-12-16T13:43:46.204Z,473
2017-12-16T13:44:16.329Z,507
2017-12-16T13:44:46.288Z,517
2017-12-16T13:45:16.382Z,570
2017-12-16T13:45:46.315Z,623
2017-12-16T13:46:16.420Z,613
2017-12-16T13:46:46.482Z,583
2017-12-16T13:47:16.506Z,613
2017-12-16T13:47:46.496Z,580
2017-12-16T13:48:16.542Z,567
2017-12-16T13:48:46.512Z,510
2017-12-16T13:49:17.028Z,463
2017-12-16T13:49:47.032Z,423
2017-12-16T13:50:17.051Z,370
2017-12-16T13:50:47.056Z,353
2017-12-16T13:51:17.126Z,313
2017-12-16T13:51:47.229Z,300
2017-12-16T13:52:17.214Z,273
2017-12-16T13:52:47.178Z,250
2017-12-16T13:53:17.317Z,227
2017-12-16T13:54:17.344Z,233
2017-12-16T13:54:47.361Z,243
2017-12-16T13:55:17.382Z,230
2017-12-16T13:55:47.439Z,223
2017-12-16T13:56:17.431Z,220
2017-12-16T13:56:47.992Z,217
2017-12-16T13:57:17.539Z,210
2017-12-16T13:57:47.523Z,193
2017-12-16T13:58:17.571Z,177
2017-12-16T13:58:47.595Z,170
2017-12-16T13:59:17.619Z,160
2017-12-16T13:59:47.621Z,153
2017-12-16T14:00:17.696Z,150
2017-12-16T14:00:47.691Z,153
2017-12-16T14:01:17.715Z,163
2017-12-16T14:01:47.814Z,177
2017-12-16T14:02:17.806Z,200
2017-12-16T14:02:47.820Z,177
2017-12-16T14:03:17.848Z,157
2017-12-16T14:03:47.864Z,150
2017-12-16T14:04:17.914Z,133
2017-12-16T14:04:47.916Z,123
2017-12-16T14:05:17.974Z,117
2017-12-16T14:05:47.982Z,113
2017-12-16T14:06:18.043Z,117
2017-12-16T14:06:48.110Z,123
2017-12-16T14:07:18.094Z,133
2017-12-16T14:07:48.127Z,153
2017-12-16T14:08:18.154Z,163
2017-12-16T14:08:48.166Z,180
2017-12-16T14:09:48.288Z,170
2017-12-16T14:10:18.272Z,147
2017-12-16T14:10:48.317Z,133
2017-12-16T14:11:18.377Z,140
2017-12-16T14:11:48.362Z,127
2017-12-16T14:12:48.478Z,133
2017-12-16T14:13:18.504Z,123
2017-12-16T14:13:48.513Z,113
2017-12-16T14:14:18.515Z,110
2017-12-16T14:14:48.586Z,107
2017-12-16T14:15:18.601Z,103
2017-12-16T14:15:48.606Z,100
2017-12-16T14:16:18.646Z,107
2017-12-16T14:16:48.664Z,110
2017-12-16T14:17:18.765Z,133
2017-12-16T14:17:48.745Z,140
2017-12-16T14:18:18.785Z,157
2017-12-16T14:18:48.788Z,203
2017-12-16T14:19:18.884Z,293
2017-12-16T14:19:48.850Z,283
2017-12-16T14:20:18.892Z,250
2017-12-16T14:20:48.915Z,280
2017-12-16T14:21:18.983Z,373
2017-12-16T14:21:48.963Z,387